Time;durP1;ratioP1;P1;durP2;ratioP2;P2;SDS_P1;SDS_P2;PMS_P1;PMS_P2;Temp;Humidity;BMP_temperature;BMP_pressure;BME280_temperature;BME280_humidity;BME280_pressure;Samples;Min_cycle;Max_cycle;Signal;HPM_P1;HPM_P2
2023/05/18 00:01:23;;;;;;;;;;;;;;;19.55;50.41;100541.00;103478;1286;75204;-82
2023/05/18 00:03:50;;;;;;;;;;;;;;;19.55;50.23;100542.44;103547;1289;62197;-82
2023/05/18 00:06:21;;;;;;;;;;;;;;;19.55;50.18;100544.04;103337;1292;62161;-83
2023/05/18 00:08:49;;;;;;;;;;;;;;;19.55;50.32;100541.73;103652;1285;73560;-83
2023/05/18 00:11:14;;;;;;;;;;;;;;;19.55;50.36;100539.95;103577;1286;75958;-84
2023/05/18 00:13:40;;;;;;;;;;;;;;;19.54;50.12;100541.05;103522;1291;62600;-83
2023/05/18 00:16:05;;;;;;;;;;;;;;;19.55;50.15;100542.80;103515;1291;62225;-83
2023/05/18 00:18:32;;;;;;;;;;;;;;;19.55;50.23;100541.02;103607;1291;62240;-82
2023/05/18 00:20:58;;;;;;;;;;;;;;;19.55;50.20;100537.82;103598;1286;62172;-82
2023/05/18 00:23:31;;;;;;;;;;;;;;;19.55;50.17;100539.39;103488;1286;62182;-84
2023/05/18 00:26:05;;;;;;;;;;;;;;;19.54;50.27;100543.73;103535;1285;62159;-83
2023/05/18 00:28:31;;;;;;;;;;;;;;;19.55;50.25;100539.03;103551;1285;72582;-82
2023/05/18 00:30:59;;;;;;;;;;;;;;;19.55;50.25;100538.89;103441;1285;62222;-82
2023/05/18 00:33:25;;;;;;;;;;;;;;;19.54;50.16;100535.35;103496;1286;62197;-83
2023/05/18 00:35:51;;;;;;;;;;;;;;;19.54;50.08;100536.59;103573;1285;62223;-83
2023/05/18 00:38:26;;;;;;;;;;;;;;;19.54;50.16;100536.06;103372;1294;62422;-82
2023/05/18 00:40:59;;;;;;;;;;;;;;;19.54;50.20;100532.48;103554;1287;75118;-83
2023/05/18 00:43:24;;;;;;;;;;;;;;;19.54;50.16;100534.29;103571;1291;62211;-83
2023/05/18 00:45:50;;;;;;;;;;;;;;;19.54;50.10;100534.98;103509;1291;62222;-83
2023/05/18 00:48:20;;;;;;;;;;;;;;;19.54;50.16;100532.13;103526;1291;62487;-83
2023/05/18 00:50:46;;;;;;;;;;;;;;;19.54;50.13;100529.67;103471;1291;76267;-84
2023/05/18 00:53:11;;;;;;;;;;;;;;;19.54;50.06;100532.15;103472;1290;63327;-84
2023/05/18 00:55:37;;;;;;;;;;;;;;;19.54;49.94;100530.74;103510;1285;62466;-83
2023/05/18 00:58:04;;;;;;;;;;;;;;;19.54;50.05;100537.88;103636;1285;62180;-83
2023/05/18 01:00:35;;;;;;;;;;;;;;;19.54;50.01;100537.70;103576;1285;75300;-83
2023/05/18 01:03:04;;;;;;;;;;;;;;;19.54;49.99;100542.36;103488;1290;62155;-83
2023/05/18 01:05:30;;;;;;;;;;;;;;;19.54;50.05;100542.36;103614;1285;62175;-82
2023/05/18 01:07:59;;;;;;;;;;;;;;;19.53;49.94;100539.33;103504;1285;62310;-82
2023/05/18 01:10:27;;;;;;;;;;;;;;;19.54;50.03;100540.21;103558;1291;76581;-83
2023/05/18 01:13:02;;;;;;;;;;;;;;;19.54;49.89;100543.61;103637;1285;62123;-82
2023/05/18 01:15:31;;;;;;;;;;;;;;;19.54;50.03;100548.06;103461;1286;62061;-83
2023/05/18 01:18:05;;;;;;;;;;;;;;;19.53;50.02;100552.55;103622;1286;72564;-83
2023/05/18 01:20:36;;;;;;;;;;;;;;;19.53;49.98;100551.48;103568;1285;76123;-83
2023/05/18 01:23:12;;;;;;;;;;;;;;;19.53;49.93;100550.77;103512;1285;62128;-83
2023/05/18 01:25:59;;;;;;;;;;;;;;;19.53;49.99;100550.06;103581;1286;62239;-83
2023/05/18 01:28:28;;;;;;;;;;;;;;;19.54;49.90;100550.57;103267;1289;73317;-83
2023/05/18 01:30:54;;;;;;;;;;;;;;;19.53;49.93;100551.29;103474;1285;76121;-83
2023/05/18 01:33:20;;;;;;;;;;;;;;;19.53;49.83;100553.45;103508;1291;62301;-83
2023/05/18 01:35:49;;;;;;;;;;;;;;;19.53;49.92;100553.63;103485;1285;63365;-83
2023/05/18 01:38:27;;;;;;;;;;;;;;;19.54;49.82;100551.45;103564;1285;72463;-84
2023/05/18 01:41:02;;;;;;;;;;;;;;;19.54;49.90;100550.04;103490;1285;75551;-83
2023/05/18 01:43:30;;;;;;;;;;;;;;;19.53;49.82;100550.77;103516;1290;62276;-83
2023/05/18 01:45:57;;;;;;;;;;;;;;;19.53;49.75;100552.57;103571;1287;62189;-83
2023/05/18 01:48:25;;;;;;;;;;;;;;;19.53;49.84;100554.71;103464;1291;62709;-83
2023/05/18 01:50:54;;;;;;;;;;;;;;;19.53;50.00;100553.10;103549;1286;76207;-84
2023/05/18 01:53:52;;;;;;;;;;;;;;;19.53;49.81;100552.23;103526;1284;62176;-82
2023/05/18 01:56:21;;;;;;;;;;;;;;;19.53;49.85;100554.02;103100;1289;62188;-83
2023/05/18 01:58:47;;;;;;;;;;;;;;;19.53;49.75;100553.48;103557;1284;72470;-83
2023/05/18 02:01:18;;;;;;;;;;;;;;;19.53;49.96;100558.84;103485;1286;76299;-83
2023/05/18 02:03:49;;;;;;;;;;;;;;;19.53;49.76;100554.19;103611;1285;62079;-83
2023/05/18 02:06:18;;;;;;;;;;;;;;;19.53;49.77;100552.05;103627;1284;62104;-83
2023/05/18 02:08:43;;;;;;;;;;;;;;;19.52;49.55;100551.55;103542;1286;73147;-85
2023/05/18 02:11:09;;;;;;;;;;;;;;;19.53;49.70;100549.92;103558;1291;62268;-83
2023/05/18 02:13:35;;;;;;;;;;;;;;;19.53;49.67;100552.58;103488;1285;62178;-84
2023/05/18 02:16:07;;;;;;;;;;;;;;;19.53;49.82;100554.39;103555;1285;63335;-84
2023/05/18 02:18:52;;;;;;;;;;;;;;;19.52;49.80;100559.77;103642;1285;73511;-82
2023/05/18 02:21:22;;;;;;;;;;;;;;;19.52;49.83;100561.36;103629;1285;76384;-82
2023/05/18 02:23:48;;;;;;;;;;;;;;;19.52;49.69;100558.50;103491;1285;62294;-84
2023/05/18 02:26:17;;;;;;;;;;;;;;;19.52;49.63;100562.64;103494;1289;62132;-83
2023/05/18 02:28:42;;;;;;;;;;;;;;;19.52;49.73;100562.61;103341;1285;62349;-83
2023/05/18 02:31:11;;;;;;;;;;;;;;;19.52;49.80;100561.73;103596;1285;75107;-83
2023/05/18 02:33:40;;;;;;;;;;;;;;;19.52;49.80;100559.95;103306;1287;62204;-82
2023/05/18 02:36:11;;;;;;;;;;;;;;;19.52;49.70;100557.63;103607;1290;62241;-83
2023/05/18 02:38:39;;;;;;;;;;;;;;;19.52;49.72;100555.70;103491;1286;73513;-83
2023/05/18 02:41:08;;;;;;;;;;;;;;;19.51;49.66;100560.33;103498;1285;62210;-82
2023/05/18 02:43:34;;;;;;;;;;;;;;;19.52;49.69;100559.42;103521;1285;62697;-83
2023/05/18 02:46:00;;;;;;;;;;;;;;;19.51;49.65;100559.48;103671;1285;62223;-83
2023/05/18 02:48:28;;;;;;;;;;;;;;;19.52;49.70;100566.60;103437;1285;73605;-82
2023/05/18 02:50:54;;;;;;;;;;;;;;;19.51;49.66;100569.10;103524;1291;62293;-81
2023/05/18 02:53:20;;;;;;;;;;;;;;;19.51;49.68;100566.98;103524;1285;62196;-83
2023/05/18 02:55:46;;;;;;;;;;;;;;;19.51;49.62;100568.77;103517;1291;62215;-83
2023/05/18 02:58:15;;;;;;;;;;;;;;;19.51;49.65;100567.88;103603;1286;72382;-82
2023/05/18 03:00:42;;;;;;;;;;;;;;;19.51;49.63;100570.58;103468;1285;75392;-84
2023/05/18 03:03:09;;;;;;;;;;;;;;;19.51;49.62;100571.80;103587;1291;62350;-82
2023/05/18 03:05:38;;;;;;;;;;;;;;;19.51;49.56;100573.45;103665;1286;62178;-83
2023/05/18 03:08:14;;;;;;;;;;;;;;;19.51;49.71;100575.91;103602;1288;72389;-84
2023/05/18 03:10:48;;;;;;;;;;;;;;;19.51;49.55;100581.65;103499;1285;76071;-84
2023/05/18 03:13:23;;;;;;;;;;;;;;;19.51;49.57;100580.75;103594;1285;62566;-84
2023/05/18 03:15:56;;;;;;;;;;;;;;;19.51;49.46;100586.08;103483;1288;62031;-83
2023/05/18 03:18:24;;;;;;;;;;;;;;;19.51;49.59;100588.95;103571;1285;72396;-83
2023/05/18 03:20:50;;;;;;;;;;;;;;;19.51;49.38;100594.29;103483;1286;62275;-84
2023/05/18 03:23:22;;;;;;;;;;;;;;;19.51;49.50;100601.79;103626;1285;62179;-83
2023/05/18 03:25:57;;;;;;;;;;;;;;;19.51;49.57;100601.79;103524;1291;62522;-83
2023/05/18 03:28:23;;;;;;;;;;;;;;;19.52;49.59;100607.48;103529;1287;73481;-83
2023/05/18 03:30:51;;;;;;;;;;;;;;;19.51;49.48;100606.92;103537;1288;62564;-82
2023/05/18 03:33:17;;;;;;;;;;;;;;;19.51;49.40;100602.30;103561;1285;62181;-83
2023/05/18 03:35:42;;;;;;;;;;;;;;;19.51;49.54;100602.47;103597;1286;62619;-83
2023/05/18 03:38:08;;;;;;;;;;;;;;;19.51;49.51;100606.95;103477;1286;62178;-83
2023/05/18 03:40:36;;;;;;;;;;;;;;;19.51;49.30;100615.17;103314;1292;62400;-83
2023/05/18 03:43:04;;;;;;;;;;;;;;;19.51;49.51;100616.27;103323;1288;62057;-83
2023/05/18 03:45:30;;;;;;;;;;;;;;;19.50;49.40;100619.14;103331;1288;62288;-83
2023/05/18 03:47:55;;;;;;;;;;;;;;;19.49;49.39;100620.83;103274;1288;62149;-84
2023/05/18 03:50:21;;;;;;;;;;;;;;;19.50;49.31;100621.89;103299;1288;62048;-83
2023/05/18 03:52:47;;;;;;;;;;;;;;;19.49;49.45;100622.13;103487;1288;62357;-84
2023/05/18 03:55:12;;;;;;;;;;;;;;;19.49;49.32;100616.59;103267;1288;62217;-83
2023/05/18 03:57:40;;;;;;;;;;;;;;;19.48;49.39;100618.94;103318;1288;62212;-84
2023/05/18 04:00:18;;;;;;;;;;;;;;;19.49;49.37;100620.69;103339;1288;72479;-84
2023/05/18 04:02:44;;;;;;;;;;;;;;;19.49;49.44;100621.94;103384;1288;76092;-83
2023/05/18 04:05:15;;;;;;;;;;;;;;;19.49;49.48;100623.15;103251;1288;62381;-84
2023/05/18 04:07:45;;;;;;;;;;;;;;;19.48;49.36;100627.87;103258;1289;62090;-84
2023/05/18 04:10:13;;;;;;;;;;;;;;;19.47;49.26;100619.77;103304;1288;72559;-84
2023/05/18 04:12:39;;;;;;;;;;;;;;;19.45;49.26;100615.94;103581;1288;75251;-83
2023/05/18 04:15:13;;;;;;;;;;;;;;;19.43;49.06;100613.92;103708;1285;62009;-82
2023/05/18 04:17:44;;;;;;;;;;;;;;;19.40;49.11;100614.64;103871;1286;62249;-84
2023/05/18 04:20:13;;;;;;;;;;;;;;;19.39;49.17;100615.98;103630;1285;73679;-83
2023/05/18 04:22:45;;;;;;;;;;;;;;;19.38;49.06;100622.67;103590;1288;75172;-84
2023/05/18 04:25:11;;;;;;;;;;;;;;;19.35;49.00;100625.70;103830;1285;62718;-84
2023/05/18 04:27:38;;;;;;;;;;;;;;;19.34;49.10;100626.68;103851;1286;62131;-82
2023/05/18 04:30:03;;;;;;;;;;;;;;;19.33;48.94;100627.80;103866;1286;62671;-83
2023/05/18 04:32:34;;;;;;;;;;;;;;;19.33;49.06;100627.64;103573;1285;62242;-83
2023/05/18 04:35:02;;;;;;;;;;;;;;;19.29;48.96;100631.09;105365;1285;62089;-82
2023/05/18 04:37:28;;;;;;;;;;;;;;;19.19;48.90;100633.92;103943;1287;62185;-83
2023/05/18 04:39:54;;;;;;;;;;;;;;;19.11;49.05;100635.52;103970;1290;63378;-84
2023/05/18 04:42:19;;;;;;;;;;;;;;;19.08;49.09;100634.43;103975;1288;62197;-83
2023/05/18 04:44:48;;;;;;;;;;;;;;;19.05;49.13;100641.61;103911;1286;62300;-83
2023/05/18 04:47:13;;;;;;;;;;;;;;;19.03;49.06;100650.27;104042;1286;62281;-84
2023/05/18 04:49:39;;;;;;;;;;;;;;;19.00;49.17;100649.58;104319;1286;62107;-83
2023/05/18 04:52:06;;;;;;;;;;;;;;;18.98;49.24;100655.95;104000;1292;62224;-83
2023/05/18 04:54:32;;;;;;;;;;;;;;;18.98;49.19;100658.45;104477;1286;62595;-83
2023/05/18 04:56:57;;;;;;;;;;;;;;;18.95;49.17;100663.25;104689;1286;61302;-82
2023/05/18 04:59:25;;;;;;;;;;;;;;;18.89;49.28;100659.52;105035;1289;62222;-82
2023/05/18 05:01:51;;;;;;;;;;;;;;;18.87;49.36;100662.34;105248;1287;60305;-83
2023/05/18 05:04:16;;;;;;;;;;;;;;;18.84;49.37;100667.90;105459;1286;62142;-83
2023/05/18 05:06:42;;;;;;;;;;;;;;;18.78;49.58;100668.09;105207;1287;60467;-83
2023/05/18 05:09:07;;;;;;;;;;;;;;;18.79;49.63;100673.38;105374;1286;63271;-83
2023/05/18 05:11:33;;;;;;;;;;;;;;;18.82;49.76;100673.55;105273;1286;60169;-83
2023/05/18 05:14:00;;;;;;;;;;;;;;;18.83;49.65;100675.77;105068;1291;60382;-83
2023/05/18 05:16:25;;;;;;;;;;;;;;;18.84;49.78;100675.50;105215;1286;62379;-82
2023/05/18 05:18:50;;;;;;;;;;;;;;;18.87;49.74;100674.80;105174;1287;62134;-83
2023/05/18 05:21:16;;;;;;;;;;;;;;;18.91;49.66;100674.38;105427;1287;62158;-83
2023/05/18 05:23:44;;;;;;;;;;;;;;;18.92;49.79;100679.50;104796;1286;73646;-83
2023/05/18 05:26:09;;;;;;;;;;;;;;;18.89;49.93;100681.50;105020;1287;75513;-83
2023/05/18 05:28:35;;;;;;;;;;;;;;;18.85;49.79;100684.74;104993;1286;60496;-83
2023/05/18 05:31:01;;;;;;;;;;;;;;;18.78;49.91;100685.17;104810;1287;60234;-82
2023/05/18 05:33:27;;;;;;;;;;;;;;;18.77;50.06;100692.02;104972;1291;62055;-84
2023/05/18 05:35:52;;;;;;;;;;;;;;;18.74;50.10;100688.63;104814;1287;62192;-83
2023/05/18 05:38:18;;;;;;;;;;;;;;;18.69;49.99;100693.96;104910;1291;62163;-82
2023/05/18 05:40:43;;;;;;;;;;;;;;;18.63;50.23;100697.18;104752;1287;62166;-83
2023/05/18 05:43:09;;;;;;;;;;;;;;;18.65;50.15;100699.39;104810;1286;62268;-83
2023/05/18 05:45:37;;;;;;;;;;;;;;;18.70;50.34;100698.71;104608;1286;62228;-82
2023/05/18 05:48:03;;;;;;;;;;;;;;;18.77;50.29;100697.21;105043;1288;74561;-83
2023/05/18 05:50:29;;;;;;;;;;;;;;;18.80;50.10;100694.87;104867;1287;60901;-83
2023/05/18 05:52:54;;;;;;;;;;;;;;;18.82;50.13;100691.34;105047;1286;62170;-82
2023/05/18 05:55:20;;;;;;;;;;;;;;;18.85;50.10;100695.28;105104;1286;60339;-82
2023/05/18 05:57:45;;;;;;;;;;;;;;;18.86;50.18;100698.25;105685;1286;60538;-83
2023/05/18 06:00:12;;;;;;;;;;;;;;;18.85;50.09;100699.34;105360;1286;76682;-83
2023/05/18 06:02:38;;;;;;;;;;;;;;;18.83;50.12;100701.08;105205;1286;61825;-83
2023/05/18 06:05:04;;;;;;;;;;;;;;;18.77;50.08;100705.55;105076;1286;61999;-82
2023/05/18 06:07:30;;;;;;;;;;;;;;;18.74;50.25;100711.25;105149;1286;61513;-83
2023/05/18 06:09:56;;;;;;;;;;;;;;;18.75;50.28;100718.69;105066;1287;61171;-82
2023/05/18 06:12:22;;;;;;;;;;;;;;;18.79;50.34;100719.02;104996;1288;62325;-82
2023/05/18 06:14:47;;;;;;;;;;;;;;;18.83;50.41;100720.91;104984;1288;62104;-82
2023/05/18 06:17:12;;;;;;;;;;;;;;;18.87;50.32;100720.44;105060;1288;62056;-82
2023/05/18 06:19:38;;;;;;;;;;;;;;;18.94;50.27;100726.46;104987;1288;62077;-83
2023/05/18 06:22:03;;;;;;;;;;;;;;;19.00;50.23;100727.52;104961;1288;60470;-81
2023/05/18 06:24:29;;;;;;;;;;;;;;;19.05;50.06;100726.13;105162;1286;61795;-81
2023/05/18 06:26:55;;;;;;;;;;;;;;;19.11;50.10;100725.79;105083;1286;60267;-81
2023/05/18 06:29:20;;;;;;;;;;;;;;;19.15;50.21;100731.00;104981;1286;62057;-81
2023/05/18 06:31:46;;;;;;;;;;;;;;;19.21;50.16;100732.81;105007;1291;60454;-82
2023/05/18 06:34:12;;;;;;;;;;;;;;;19.24;50.11;100731.13;104776;1287;62321;-83
2023/05/18 06:36:37;;;;;;;;;;;;;;;19.28;50.26;100733.06;104957;1287;62119;-83
2023/05/18 06:39:04;;;;;;;;;;;;;;;19.31;50.18;100732.35;104826;1287;62197;-83
2023/05/18 06:41:29;;;;;;;;;;;;;;;19.32;50.11;100733.15;104959;1288;62080;-82
2023/05/18 06:43:59;;;;;;;;;;;;;;;19.32;49.96;100736.20;104950;1290;62138;-82
2023/05/18 06:46:25;;;;;;;;;;;;;;;19.25;50.03;100735.05;106284;1286;60033;-82
2023/05/18 06:48:51;;;;;;;;;;;;;;;19.22;49.94;100735.02;106106;1288;60213;-82
2023/05/18 06:51:16;;;;;;;;;;;;;;;19.25;49.99;100746.27;104747;1293;62322;-83
2023/05/18 06:53:42;;;;;;;;;;;;;;;19.22;49.87;100751.63;105026;1291;60896;-83
2023/05/18 06:56:10;;;;;;;;;;;;;;;19.14;49.80;100749.49;105271;1288;60462;-83
2023/05/18 06:58:36;;;;;;;;;;;;;;;19.08;49.72;100751.95;105201;1290;60479;-84
2023/05/18 07:01:01;;;;;;;;;;;;;;;19.01;49.81;100760.26;105049;1289;61952;-84
2023/05/18 07:03:28;;;;;;;;;;;;;;;18.86;49.65;100758.70;105044;1288;61477;-83
2023/05/18 07:05:54;;;;;;;;;;;;;;;18.73;49.72;100760.36;105379;1289;669468;-84
2023/05/18 07:08:19;;;;;;;;;;;;;;;18.69;49.64;100764.38;105902;1289;60659;-84
2023/05/18 07:10:45;;;;;;;;;;;;;;;18.69;49.80;100767.56;105953;1289;60635;-83
2023/05/18 07:13:11;;;;;;;;;;;;;;;18.71;49.86;100772.43;105860;1289;60471;-82
2023/05/18 07:15:36;;;;;;;;;;;;;;;18.74;49.86;100774.55;105700;1290;62043;-81
2023/05/18 07:18:02;;;;;;;;;;;;;;;18.78;49.84;100777.35;104865;1290;60837;-82
2023/05/18 07:20:28;;;;;;;;;;;;;;;18.82;49.83;100773.71;104726;1291;62226;-82
2023/05/18 07:22:54;;;;;;;;;;;;;;;18.78;49.95;100769.33;104956;1287;61403;-82
2023/05/18 07:25:20;;;;;;;;;;;;;;;18.76;49.86;100771.25;104993;1288;62081;-82
2023/05/18 07:27:45;;;;;;;;;;;;;;;18.81;49.88;100768.77;104982;1287;75322;-81
2023/05/18 07:30:11;;;;;;;;;;;;;;;18.87;49.80;100764.16;104747;1288;60671;-81
2023/05/18 07:32:36;;;;;;;;;;;;;;;18.87;49.82;100766.11;104792;1286;62284;-81
2023/05/18 07:35:02;;;;;;;;;;;;;;;18.89;49.84;100766.91;104997;1285;60911;-81
2023/05/18 07:37:27;;;;;;;;;;;;;;;18.92;49.81;100772.96;104954;1286;62184;-81
2023/05/18 07:39:53;;;;;;;;;;;;;;;18.91;49.64;100771.61;104729;1288;73212;-82
2023/05/18 07:42:18;;;;;;;;;;;;;;;18.92;49.79;100770.97;105122;1288;61980;-82
2023/05/18 07:44:44;;;;;;;;;;;;;;;18.95;49.65;100772.42;105014;1287;62207;-83
2023/05/18 07:47:10;;;;;;;;;;;;;;;18.97;49.51;100772.31;104996;1287;62208;-82
2023/05/18 07:49:37;;;;;;;;;;;;;;;18.97;49.59;100774.30;104689;1286;62003;-82
2023/05/18 07:52:07;;;;;;;;;;;;;;;18.94;49.40;100771.98;105152;1285;60919;-82
2023/05/18 07:54:37;;;;;;;;;;;;;;;18.92;49.33;100774.02;105058;1285;60985;-82
2023/05/18 07:57:08;;;;;;;;;;;;;;;18.96;49.43;100776.66;105080;1285;73316;-82
2023/05/18 07:59:34;;;;;;;;;;;;;;;19.02;49.51;100778.95;105036;1287;62137;-82
2023/05/18 08:02:00;;;;;;;;;;;;;;;19.06;49.32;100773.88;105383;1285;60765;-84
2023/05/18 08:04:30;;;;;;;;;;;;;;;19.11;49.48;100774.85;105205;1285;61553;-82
2023/05/18 08:06:59;;;;;;;;;;;;;;;19.14;49.39;100779.25;105011;1288;73767;-82
2023/05/18 08:09:25;;;;;;;;;;;;;;;19.14;49.35;100783.73;105046;1288;76398;-81
2023/05/18 08:11:52;;;;;;;;;;;;;;;19.14;49.11;100787.14;105422;1287;62227;-84
2023/05/18 08:14:17;;;;;;;;;;;;;;;19.12;49.16;100788.13;105043;1286;62160;-84
2023/05/18 08:16:43;;;;;;;;;;;;;;;19.10;49.12;100787.88;105002;1286;61987;-84
2023/05/18 08:19:08;;;;;;;;;;;;;;;19.09;48.96;100789.05;104992;1286;62240;-83
2023/05/18 08:21:34;;;;;;;;;;;;;;;19.09;49.06;100788.16;105106;1287;62131;-82
2023/05/18 08:24:00;;;;;;;;;;;;;;;19.09;48.85;100786.86;105020;1285;62081;-82
2023/05/18 08:26:26;;;;;;;;;;;;;;;19.11;48.97;100785.35;105181;1288;62003;-83
2023/05/18 08:29:08;;;;;;;;;;;;;;;19.12;48.93;100785.11;105167;1287;62155;-83
2023/05/18 08:31:34;;;;;;;;;;;;;;;19.15;48.95;100784.57;106203;1287;74880;-81
2023/05/18 08:34:00;;;;;;;;;;;;;;;19.19;49.03;100789.61;106196;1288;60309;-82
2023/05/18 08:36:26;;;;;;;;;;;;;;;19.24;49.04;100785.36;105209;1285;62146;-83
2023/05/18 08:38:52;;;;;;;;;;;;;;;19.30;49.04;100786.84;104912;1284;62037;-83
2023/05/18 08:41:44;;;;;;;;;;;;;;;19.33;49.07;100783.24;105027;1285;62071;-81
2023/05/18 08:44:18;;;;;;;;;;;;;;;19.36;48.97;100782.88;105322;1284;60659;-81
2023/05/18 08:46:49;;;;;;;;;;;;;;;19.35;48.88;100776.53;105654;1284;62733;-82
2023/05/18 08:49:16;;;;;;;;;;;;;;;19.34;48.74;100776.95;105092;1285;72254;-83
2023/05/18 08:51:41;;;;;;;;;;;;;;;19.34;48.73;100776.17;106023;1284;76163;-83
2023/05/18 08:54:07;;;;;;;;;;;;;;;19.37;48.86;100776.20;105100;1285;62188;-82
2023/05/18 08:56:33;;;;;;;;;;;;;;;19.38;48.67;100779.18;104672;1284;62184;-82
2023/05/18 08:58:58;;;;;;;;;;;;;;;19.40;48.69;100774.74;105107;1284;62195;-82
2023/05/18 09:01:27;;;;;;;;;;;;;;;19.43;48.68;100773.48;105285;1285;60797;-83
2023/05/18 09:03:52;;;;;;;;;;;;;;;19.45;48.72;100770.14;105536;1285;61174;-82
2023/05/18 09:06:19;;;;;;;;;;;;;;;19.50;48.71;100766.48;105558;1285;62074;-81
2023/05/18 09:08:45;;;;;;;;;;;;;;;19.55;48.72;100770.23;105055;1291;60734;-82
2023/05/18 09:11:10;;;;;;;;;;;;;;;19.59;48.85;100764.98;105250;1285;62223;-82
2023/05/18 09:13:35;;;;;;;;;;;;;;;19.60;48.69;100766.15;105275;1288;62186;-82
2023/05/18 09:16:03;;;;;;;;;;;;;;;19.61;48.52;100765.36;104904;1285;60931;-82
2023/05/18 09:18:28;;;;;;;;;;;;;;;19.63;48.46;100767.42;105017;1285;62115;-82
2023/05/18 09:20:53;;;;;;;;;;;;;;;19.64;48.29;100767.50;104743;1285;62134;-81
2023/05/18 09:23:19;;;;;;;;;;;;;;;19.64;48.29;100763.20;105041;1284;62082;-82
2023/05/18 09:25:45;;;;;;;;;;;;;;;19.65;48.13;100766.88;105169;1285;60939;-82
2023/05/18 09:28:13;;;;;;;;;;;;;;;19.67;48.08;100758.34;105081;1285;62362;-82
2023/05/18 09:30:42;;;;;;;;;;;;;;;19.69;47.86;100760.22;104948;1285;62073;-83
2023/05/18 09:33:15;;;;;;;;;;;;;;;19.71;47.91;100760.61;105043;1286;72694;-83
2023/05/18 09:35:43;;;;;;;;;;;;;;;19.73;48.17;100759.23;105306;1285;75234;-82
2023/05/18 09:38:08;;;;;;;;;;;;;;;19.75;48.33;100757.66;105186;1285;61145;-82
2023/05/18 09:40:33;;;;;;;;;;;;;;;19.78;48.29;100754.82;105223;1288;62210;-82
2023/05/18 09:42:59;;;;;;;;;;;;;;;19.79;48.38;100753.11;104811;1285;62391;-82
2023/05/18 09:45:27;;;;;;;;;;;;;;;19.79;48.19;100752.76;104976;1285;62203;-82
2023/05/18 09:47:53;;;;;;;;;;;;;;;19.79;48.06;100752.77;105093;1285;61926;-82
2023/05/18 09:50:22;;;;;;;;;;;;;;;19.79;48.05;100754.02;105003;1286;62135;-81
2023/05/18 09:52:50;;;;;;;;;;;;;;;19.80;47.94;100749.84;104989;1285;73642;-82
2023/05/18 09:55:16;;;;;;;;;;;;;;;19.81;47.83;100750.52;104932;1291;75347;-82
2023/05/18 09:57:45;;;;;;;;;;;;;;;19.82;47.89;100749.20;104906;1285;62209;-82
2023/05/18 10:00:11;;;;;;;;;;;;;;;19.84;47.72;100750.86;106402;1285;60765;-82
2023/05/18 10:02:40;;;;;;;;;;;;;;;19.85;47.79;100747.19;105990;1286;62124;-82
2023/05/18 10:05:08;;;;;;;;;;;;;;;19.88;47.73;100742.52;105314;1284;74348;-83
2023/05/18 10:07:33;;;;;;;;;;;;;;;19.92;47.71;100746.39;105622;1285;61233;-83
2023/05/18 10:10:00;;;;;;;;;;;;;;;19.94;47.71;100748.22;105883;1285;61247;-83
2023/05/18 10:12:25;;;;;;;;;;;;;;;19.96;47.63;100751.30;105373;1284;61787;-82
2023/05/18 10:14:51;;;;;;;;;;;;;;;19.98;47.17;100752.11;105511;1288;60809;-83
2023/05/18 10:17:16;;;;;;;;;;;;;;;19.98;47.01;100750.45;105349;1285;61727;-83
2023/05/18 10:19:42;;;;;;;;;;;;;;;20.00;46.82;100751.24;105483;1291;62094;-83
2023/05/18 10:22:07;;;;;;;;;;;;;;;20.00;46.76;100748.88;105378;1285;62180;-83
2023/05/18 10:24:33;;;;;;;;;;;;;;;20.01;46.74;100745.27;105284;1288;62033;-83
2023/05/18 10:26:59;;;;;;;;;;;;;;;20.02;46.83;100744.31;105041;1294;62011;-85
2023/05/18 10:29:25;;;;;;;;;;;;;;;20.02;46.53;100736.58;105046;1285;62118;-82
2023/05/18 10:31:50;;;;;;;;;;;;;;;20.03;46.48;100738.67;105067;1285;62093;-82
2023/05/18 10:34:17;;;;;;;;;;;;;;;20.03;46.30;100740.09;105183;1284;62060;-82
2023/05/18 10:36:42;;;;;;;;;;;;;;;20.03;46.20;100744.23;104916;1291;73515;-82
2023/05/18 10:39:08;;;;;;;;;;;;;;;20.02;46.20;100741.56;104723;1285;62076;-82
2023/05/18 10:41:34;;;;;;;;;;;;;;;20.02;45.94;100740.38;104861;1285;62165;-82
2023/05/18 10:44:02;;;;;;;;;;;;;;;20.02;45.86;100734.84;104952;1285;62193;-82
2023/05/18 10:46:28;;;;;;;;;;;;;;;20.03;45.82;100740.14;104779;1284;62130;-82
2023/05/18 10:48:53;;;;;;;;;;;;;;;20.02;45.77;100729.98;104578;1287;62111;-82
2023/05/18 10:51:20;;;;;;;;;;;;;;;20.03;45.73;100731.88;105056;1285;62267;-81
2023/05/18 10:53:47;;;;;;;;;;;;;;;20.06;45.50;100737.75;105055;1285;60480;-81
2023/05/18 10:56:16;;;;;;;;;;;;;;;20.08;45.36;100726.76;105056;1285;61994;-82
2023/05/18 10:58:42;;;;;;;;;;;;;;;20.10;45.11;100729.10;105361;1285;75091;-81
2023/05/18 11:01:08;;;;;;;;;;;;;;;20.12;44.91;100728.07;105763;1285;62143;-83
2023/05/18 11:03:34;;;;;;;;;;;;;;;20.13;44.74;100726.98;105253;1285;62280;-82
2023/05/18 11:06:07;;;;;;;;;;;;;;;20.13;44.55;100725.14;105650;1285;62047;-82
2023/05/18 11:08:33;;;;;;;;;;;;;;;20.13;44.35;100725.48;106534;1285;75339;-82
2023/05/18 11:11:02;;;;;;;;;;;;;;;20.13;44.37;100730.87;106382;1285;60253;-83
2023/05/18 11:13:33;;;;;;;;;;;;;;;20.13;44.39;100728.57;106554;1285;60779;-83
2023/05/18 11:16:04;;;;;;;;;;;;;;;20.13;44.18;100727.66;106415;1285;72646;-82
2023/05/18 11:18:39;;;;;;;;;;;;;;;20.14;44.06;100725.64;106501;1284;75917;-83
2023/05/18 11:21:18;;;;;;;;;;;;;;;20.15;43.88;100725.95;106416;1285;60859;-82
2023/05/18 11:24:03;;;;;;;;;;;;;;;20.17;43.61;100729.55;106407;1285;61012;-82
2023/05/18 11:26:30;;;;;;;;;;;;;;;20.20;43.38;100727.02;106577;1285;73490;-82
2023/05/18 11:28:55;;;;;;;;;;;;;;;20.21;43.40;100726.38;106471;1285;59941;-81
2023/05/18 11:31:20;;;;;;;;;;;;;;;20.21;43.35;100720.14;104966;1285;62193;-82
2023/05/18 11:33:46;;;;;;;;;;;;;;;20.20;43.37;100714.09;104680;1285;63511;-82
2023/05/18 11:36:13;;;;;;;;;;;;;;;20.20;43.28;100715.35;104879;1285;62292;-82
2023/05/18 11:38:49;;;;;;;;;;;;;;;20.21;43.26;100712.46;105191;1284;62100;-81
2023/05/18 11:41:34;;;;;;;;;;;;;;;20.22;43.17;100717.73;105532;1285;62050;-82
2023/05/18 11:44:15;;;;;;;;;;;;;;;20.24;42.93;100719.41;105323;1286;62055;-83
2023/05/18 11:47:00;;;;;;;;;;;;;;;20.25;42.88;100715.23;105208;1288;73302;-81
2023/05/18 11:49:36;;;;;;;;;;;;;;;20.25;43.07;100713.42;105573;1285;75312;-82
2023/05/18 11:52:01;;;;;;;;;;;;;;;20.27;43.03;100716.69;105417;1285;61958;-81
2023/05/18 11:54:27;;;;;;;;;;;;;;;20.30;42.85;100716.32;105419;1285;60752;-81
2023/05/18 11:56:52;;;;;;;;;;;;;;;20.32;42.86;100713.65;104622;1285;61932;-80
2023/05/18 11:59:18;;;;;;;;;;;;;;;20.37;42.54;100713.33;104948;1294;62281;-80
2023/05/18 12:01:43;;;;;;;;;;;;;;;20.39;42.31;100715.71;105128;1289;62162;-80
2023/05/18 12:04:09;;;;;;;;;;;;;;;20.37;42.24;100716.48;104775;1288;62160;-80
2023/05/18 12:06:36;;;;;;;;;;;;;;;20.37;42.10;100719.88;104607;1289;62286;-81
2023/05/18 12:09:01;;;;;;;;;;;;;;;20.37;41.97;100723.12;104747;1288;62060;-81
2023/05/18 12:11:27;;;;;;;;;;;;;;;20.36;42.11;100724.80;105097;1288;60528;-81
2023/05/18 12:13:53;;;;;;;;;;;;;;;20.35;42.02;100718.29;104720;1291;61448;-81
2023/05/18 12:16:19;;;;;;;;;;;;;;;20.34;41.93;100723.14;104662;1288;63594;-82
2023/05/18 12:18:48;;;;;;;;;;;;;;;20.36;41.63;100720.33;104817;1287;62110;-81
2023/05/18 12:21:15;;;;;;;;;;;;;;;20.37;41.55;100718.30;106210;1292;73371;-81
2023/05/18 12:23:41;;;;;;;;;;;;;;;20.37;41.43;100719.70;106337;1288;74245;-81
2023/05/18 12:26:07;;;;;;;;;;;;;;;20.37;41.40;100712.98;104398;1288;62170;-81
2023/05/18 12:28:32;;;;;;;;;;;;;;;20.34;41.27;100713.89;104147;1288;62111;-81